Society Hill, South Carolina
Current Conditions -  °F | °C
As of 1:35 PM on Thursday 27 Nov 2014 (Local Time) from KUDG Reporting Station
Few Clouds Few Clouds  
Wind Chill: 54°   Ceiling: Unl
Heat Index: 54°   Visibility: 10mi
Dew Point: 34°   Wind: 14mph
Humidity: 47%   Direction: 300°WNW
Pressure: 30.09"   Gusts: 18mph
Location:  34.51°N, 79.85°W
Report Text: KUDG 271835Z AUTO 30012G16KT 10SM FEW060 12/01 A3009 RMK AO1
Loading
Personal Weather Stations






























Interactive Weather Map New forecast layout! Learn more

10-Day Weather Forecast

Advertisements
Track Severe Weather on mobile